Time;durP1;ratioP1;P1;durP2;ratioP2;P2;SDS_P1;SDS_P2;PMS_P1;PMS_P2;Temp;Humidity;BMP_temperature;BMP_pressure;BME280_temperature;BME280_humidity;BME280_pressure;Samples;Min_cycle;Max_cycle;Signal;HPM_P1;HPM_P2
2022/12/19 00:03:20;;;;;;;80.80;38.17;;;-0.10;99.60;;;;;;10327334;28;20292;-85
2022/12/19 00:08:22;;;;;;;41.30;20.23;;;-0.60;99.00;;;;;;10308688;28;20721;-86
2022/12/19 00:13:26;;;;;;;38.20;19.30;;;0.30;99.90;;;;;;10310990;28;20220;-85
2022/12/19 00:18:30;;;;;;;41.70;21.60;;;1.40;99.90;;;;;;10339804;28;20240;-86
2022/12/19 00:23:33;;;;;;;36.63;17.63;;;3.40;99.90;;;;;;10340673;28;20635;-86
2022/12/19 00:28:36;;;;;;;43.10;22.40;;;4.60;99.90;;;;;;10340682;28;20244;-86
2022/12/19 00:33:38;;;;;;;45.50;21.70;;;4.40;99.90;;;;;;10322664;28;20669;-86
2022/12/19 00:38:46;;;;;;;48.10;23.67;;;3.30;99.90;;;;;;10338054;28;20249;-86
2022/12/19 00:43:58;;;;;;;43.80;20.93;;;3.60;99.90;;;;;;10340496;28;20756;-86
2022/12/19 00:49:02;;;;;;;39.70;19.77;;;3.70;99.90;;;;;;10322715;28;20244;-86
2022/12/19 00:54:04;;;;;;;52.33;26.30;;;5.00;99.90;;;;;;10305750;28;20240;-85
2022/12/19 00:59:09;;;;;;;39.77;21.23;;;4.00;96.10;;;;;;10306495;28;20212;-86
2022/12/19 01:04:13;;;;;;;34.40;17.93;;;3.90;99.90;;;;;;10338146;28;20232;-86
2022/12/19 01:09:36;;;;;;;43.83;22.30;;;3.20;99.90;;;;;;10337475;28;20228;-86
2022/12/19 01:14:38;;;;;;;38.47;19.47;;;3.80;99.90;;;;;;10322394;28;20244;-86
2022/12/19 01:19:42;;;;;;;45.63;21.20;;;4.60;99.90;;;;;;10305542;28;20306;-86
2022/12/19 01:24:46;;;;;;;58.70;30.53;;;3.50;97.80;;;;;;10313172;28;20237;-85
2022/12/19 01:29:49;;;;;;;40.50;22.20;;;3.20;98.50;;;;;;10306985;28;20335;-85
2022/12/19 01:34:54;;;;;;;70.77;34.00;;;1.40;99.90;;;;;;10328046;28;20241;-85
2022/12/19 01:39:56;;;;;;;59.17;31.17;;;2.40;99.90;;;;;;10328951;28;20228;-86
2022/12/19 01:45:08;;;;;;;45.87;22.87;;;2.90;99.80;;;;;;10331883;28;20224;-85
2022/12/19 01:50:25;;;;;;;57.87;29.03;;;3.00;99.90;;;;;;10332049;28;20239;-86
2022/12/19 01:55:27;;;;;;;48.27;22.77;;;2.70;99.90;;;;;;10315596;28;20865;-86
2022/12/19 02:00:30;;;;;;;46.00;20.87;;;2.50;99.90;;;;;;10331699;28;20217;-86
2022/12/19 02:05:34;;;;;;;39.73;18.97;;;3.40;99.90;;;;;;10331342;28;20269;-85
2022/12/19 02:10:37;;;;;;;48.57;23.13;;;3.70;99.90;;;;;;10313362;28;20258;-85
2022/12/19 02:16:21;;;;;;;56.80;27.57;;;3.90;97.90;;;;;;10329737;28;20887;-85
2022/12/19 02:21:31;;;;;;;45.33;23.93;;;2.90;94.80;;;;;;10190253;29;20267;-85
2022/12/19 02:27:09;;;;;;;55.17;29.00;;;2.60;99.90;;;;;;10190200;29;20301;-85
2022/12/19 02:32:27;;;;;;;50.10;25.87;;;1.40;97.50;;;;;;10170146;29;20263;-86
2022/12/19 02:37:35;;;;;;;40.63;20.90;;;1.30;99.90;;;;;;10204014;29;20269;-86
2022/12/19 02:42:45;;;;;;;35.50;17.63;;;2.50;99.90;;;;;;10188252;29;20684;-85
2022/12/19 02:47:48;;;;;;;66.83;36.17;;;2.90;99.90;;;;;;10186352;29;20689;-86
2022/12/19 02:52:50;;;;;;;35.07;19.03;;;3.50;94.80;;;;;;10204637;29;20256;-86
2022/12/19 02:58:16;;;;;;;55.57;29.20;;;3.60;99.90;;;;;;10302447;28;20642;-85
2022/12/19 03:03:29;;;;;;;34.53;18.67;;;4.10;96.80;;;;;;10313492;28;20307;-85
2022/12/19 03:08:53;;;;;;;38.00;18.53;;;3.90;99.90;;;;;;10311133;28;20303;-86
2022/12/19 03:14:01;;;;;;;54.07;27.10;;;3.70;99.90;;;;;;10295420;28;20688;-85
2022/12/19 03:19:08;;;;;;;45.07;23.77;;;4.20;99.70;;;;;;10326982;28;20249;-84
2022/12/19 03:24:12;;;;;;;40.00;20.53;;;3.70;96.80;;;;;;10328812;28;20255;-85
2022/12/19 03:29:26;;;;;;;41.13;20.23;;;3.40;99.70;;;;;;10327903;28;20245;-85
2022/12/19 03:35:10;;;;;;;37.27;18.23;;;3.30;99.90;;;;;;10310404;28;20310;-85
2022/12/19 03:40:20;;;;;;;37.90;17.50;;;3.50;99.90;;;;;;10203588;29;20834;-85
2022/12/19 03:45:30;;;;;;;43.00;24.07;;;3.30;99.90;;;;;;10203841;29;20293;-85
2022/12/19 03:50:45;;;;;;;34.43;19.20;;;2.30;95.80;;;;;;10184959;29;20848;-85
2022/12/19 03:55:56;;;;;;;38.63;20.83;;;3.80;99.90;;;;;;10203049;29;20223;-85
2022/12/19 04:01:00;;;;;;;45.23;22.50;;;4.00;96.70;;;;;;10187560;29;20266;-85
2022/12/19 04:06:04;;;;;;;41.00;20.80;;;2.70;98.00;;;;;;10187253;29;20318;-85
2022/12/19 04:11:14;;;;;;;40.10;20.93;;;1.30;95.30;;;;;;10282853;28;20294;-86
2022/12/19 04:16:36;;;;;;;45.30;24.90;;;1.50;99.90;;;;;;10326985;28;20685;-85
2022/12/19 04:21:55;;;;;;;46.10;25.93;;;1.90;98.90;;;;;;10326589;28;20236;-86
2022/12/19 04:27:00;;;;;;;45.47;23.47;;;1.80;94.40;;;;;;10309003;28;20237;-85
2022/12/19 04:32:04;;;;;;;38.10;19.83;;;3.60;99.90;;;;;;10326674;28;20255;-85
2022/12/19 04:37:08;;;;;;;37.33;18.97;;;3.60;98.10;;;;;;10326811;28;20808;-85
2022/12/19 04:42:11;;;;;;;41.20;21.70;;;3.10;96.40;;;;;;10325593;28;20296;-85
2022/12/19 04:47:13;;;;;;;43.17;20.63;;;3.00;97.00;;;;;;10325972;28;20233;-85
2022/12/19 04:52:15;;;;;;;30.13;16.40;;;2.70;90.20;;;;;;10324931;28;20256;-85
2022/12/19 04:57:18;;;;;;;35.43;18.93;;;1.50;99.90;;;;;;10325417;28;20280;-85
2022/12/19 05:02:21;;;;;;;41.83;18.70;;;1.00;99.90;;;;;;10329538;28;20209;-85
2022/12/19 05:07:23;;;;;;;37.83;22.13;;;1.00;99.90;;;;;;10333082;28;20204;-85
2022/12/19 05:12:27;;;;;;;49.67;24.33;;;1.20;98.00;;;;;;10333442;28;20258;-85
2022/12/19 05:17:30;;;;;;;30.43;15.43;;;0.20;95.40;;;;;;10333615;28;20299;-85
2022/12/19 05:22:33;;;;;;;47.40;25.00;;;0.70;99.90;;;;;;10316394;28;20217;-85
2022/12/19 05:27:35;;;;;;;37.80;19.30;;;0.80;99.90;;;;;;10315440;28;20978;-85
2022/12/19 05:32:37;;;;;;;44.00;23.40;;;1.40;99.90;;;;;;10331751;28;20252;-84
2022/12/19 05:37:40;;;;;;;34.47;18.70;;;1.30;99.90;;;;;;10330832;28;20299;-83
2022/12/19 05:42:42;;;;;;;33.97;18.77;;;0.70;99.90;;;;;;10316049;28;20703;-83
2022/12/19 05:47:45;;;;;;;54.50;27.13;;;1.30;99.90;;;;;;10332236;28;20708;-85
2022/12/19 05:52:48;;;;;;;50.00;23.63;;;1.80;90.40;;;;;;10321468;28;20265;-84
2022/12/19 05:57:51;;;;;;;46.93;24.33;;;1.00;99.90;;;;;;10284164;28;20279;-84
2022/12/19 06:02:53;;;;;;;43.27;22.03;;;1.50;99.90;;;;;;10310453;28;21061;-83
2022/12/19 06:07:56;;;;;;;48.07;25.33;;;0.40;99.90;;;;;;10324992;28;20267;-85
2022/12/19 06:12:58;;;;;;;36.27;15.53;;;0.10;97.90;;;;;;10329723;28;20249;-84
2022/12/19 06:18:00;;;;;;;23.70;14.57;;;1.50;99.90;;;;;;10330999;28;20653;-84
2022/12/19 06:23:03;;;;;;;51.75;28.17;;;3.30;99.90;;;;;;10328868;28;20500;-82
2022/12/19 06:28:05;;;;;;;53.80;25.27;;;3.00;94.20;;;;;;10331589;28;20263;-84
2022/12/19 06:33:09;;;;;;;52.63;28.33;;;4.80;63.20;;;;;;10310172;28;20310;-84
2022/12/19 06:38:11;;;;;;;49.43;25.93;;;3.00;52.10;;;;;;10307247;28;20679;-84
2022/12/19 06:43:16;;;;;;;50.70;24.80;;;1.70;66.40;;;;;;10323453;28;20252;-84
2022/12/19 06:48:19;;;;;;;56.40;27.90;;;1.40;72.90;;;;;;10309067;28;20636;-84
2022/12/19 06:53:21;;;;;;;43.77;20.57;;;0.40;64.20;;;;;;10309437;28;20776;-84
2022/12/19 06:58:25;;;;;;;52.40;27.13;;;1.50;94.30;;;;;;10323674;28;20266;-84
2022/12/19 07:03:37;;;;;;;54.30;28.67;;;0.70;70.40;;;;;;10287691;28;20639;-84
2022/12/19 07:08:40;;;;;;;46.33;23.97;;;0.50;91.60;;;;;;10288553;28;20289;-84
2022/12/19 07:13:43;;;;;;;39.00;20.53;;;1.80;91.10;;;;;;10289233;28;20316;-84
2022/12/19 07:18:45;;;;;;;49.20;25.30;;;2.60;88.20;;;;;;10305437;28;20236;-83
2022/12/19 07:23:48;;;;;;;49.77;24.53;;;2.70;74.30;;;;;;10317816;28;20273;-83
2022/12/19 07:28:51;;;;;;;55.27;27.37;;;2.00;78.90;;;;;;10309158;28;20236;-83
2022/12/19 07:33:54;;;;;;;39.80;20.43;;;2.30;77.00;;;;;;10328123;28;20262;-84
2022/12/19 07:38:56;;;;;;;54.43;27.57;;;1.20;86.00;;;;;;10324359;28;20689;-84
2022/12/19 07:43:59;;;;;;;51.03;26.93;;;0.20;86.60;;;;;;10324586;28;20275;-84
2022/12/19 07:49:01;;;;;;;44.47;25.17;;;0.10;91.40;;;;;;10322898;28;20280;-84
2022/12/19 07:54:03;;;;;;;43.07;23.33;;;0.10;97.80;;;;;;10339662;28;20236;-84
2022/12/19 07:59:06;;;;;;;45.20;22.67;;;0.20;99.90;;;;;;10313206;28;20303;-84
2022/12/19 08:04:08;;;;;;;43.10;24.40;;;2.00;95.90;;;;;;10307608;28;20256;-84
2022/12/19 08:09:12;;;;;;;46.43;23.87;;;2.20;90.80;;;;;;10305614;28;20245;-84
2022/12/19 08:14:14;;;;;;;49.93;24.87;;;0.80;98.60;;;;;;10312251;28;20298;-84
2022/12/19 08:19:17;;;;;;;39.83;21.93;;;0.50;95.50;;;;;;10297765;28;20230;-85
2022/12/19 08:24:27;;;;;;;37.00;21.17;;;1.80;99.90;;;;;;10317017;28;20295;-85
2022/12/19 08:29:34;;;;;;;42.50;18.63;;;3.60;95.70;;;;;;10314695;28;20245;-84
2022/12/19 08:34:36;;;;;;;43.47;22.73;;;4.10;93.10;;;;;;10317328;28;20240;-84
2022/12/19 08:39:39;;;;;;;49.77;25.27;;;3.20;73.10;;;;;;10317882;28;20644;-84
2022/12/19 08:44:41;;;;;;;45.03;25.27;;;3.40;90.80;;;;;;10321464;28;20283;-85
2022/12/19 08:49:44;;;;;;;50.00;26.17;;;2.20;90.30;;;;;;10308884;28;20257;-85
2022/12/19 08:54:46;;;;;;;43.77;23.40;;;1.30;94.50;;;;;;10312356;28;20240;-85
2022/12/19 08:59:49;;;;;;;38.27;19.47;;;1.80;99.90;;;;;;10324109;28;20237;-84
2022/12/19 09:04:53;;;;;;;47.47;27.30;;;1.00;98.40;;;;;;10314527;28;20339;-84
2022/12/19 09:10:15;;;;;;;49.03;27.90;;;0.70;95.50;;;;;;10328618;28;20300;-84
2022/12/19 09:15:18;;;;;;;40.80;23.27;;;0.90;95.40;;;;;;10304220;28;20225;-84
2022/12/19 09:20:21;;;;;;;47.17;24.37;;;0.30;97.70;;;;;;10305883;28;20244;-84
2022/12/19 09:25:27;;;;;;;55.27;30.30;;;-0.10;99.90;;;;;;10313718;28;20694;-83
2022/12/19 09:30:39;;;;;;;48.00;26.07;;;0.50;99.90;;;;;;10306485;28;20260;-85
2022/12/19 09:35:50;;;;;;;54.37;27.73;;;0.20;99.90;;;;;;10318283;28;20297;-84
2022/12/19 09:41:14;;;;;;;53.50;27.43;;;0.40;99.50;;;;;;10318421;28;20232;-83
2022/12/19 09:46:50;;;;;;;42.23;23.63;;;-0.20;99.20;;;;;;10300025;28;20240;-83
2022/12/19 09:52:27;;;;;;;54.40;29.23;;;-0.20;99.90;;;;;;10320429;28;20268;-83
2022/12/19 09:57:43;;;;;;;45.97;24.43;;;-0.90;99.90;;;;;;10318650;28;20233;-82
2022/12/19 10:02:56;;;;;;;44.50;24.30;;;-0.30;99.90;;;;;;10313853;28;20268;-83
2022/12/19 10:08:00;;;;;;;38.27;21.70;;;-0.20;99.90;;;;;;10288885;28;20244;-83
2022/12/19 10:13:56;;;;;;;46.47;23.40;;;-0.30;99.90;;;;;;10296079;28;20261;-83
2022/12/19 10:19:03;;;;;;;30.17;16.63;;;0.30;99.90;;;;;;10311935;28;20252;-83
2022/12/19 10:24:08;;;;;;;37.80;21.83;;;0.30;99.90;;;;;;10279964;28;20955;-83
2022/12/19 10:29:35;;;;;;;43.67;22.60;;;0.50;99.90;;;;;;10304908;28;20686;-84
2022/12/19 10:34:43;;;;;;;38.43;18.30;;;0.20;99.90;;;;;;10314983;28;20241;-84
2022/12/19 10:40:10;;;;;;;34.93;19.03;;;0.20;99.90;;;;;;10317206;28;20263;-83
2022/12/19 10:45:39;;;;;;;41.17;21.00;;;0.20;99.90;;;;;;10309879;28;20805;-82
2022/12/19 10:50:42;;;;;;;42.17;22.43;;;0.00;99.90;;;;;;10307126;28;20660;-82
2022/12/19 10:55:50;;;;;;;49.03;26.13;;;0.00;99.90;;;;;;10305264;28;20233;-82
2022/12/19 11:01:04;;;;;;;42.40;20.73;;;-0.10;99.90;;;;;;10303228;28;20241;-82
2022/12/19 11:06:44;;;;;;;36.70;21.03;;;0.00;99.90;;;;;;10302322;28;20299;-83
2022/12/19 11:11:54;;;;;;;45.67;25.90;;;0.40;99.90;;;;;;10327386;28;20283;-84
2022/12/19 11:17:23;;;;;;;9.13;3.60;;;0.70;99.90;;;;;;10317861;28;20237;-83
2022/12/19 11:22:56;;;;;;;38.83;20.57;;;0.80;99.90;;;;;;10317670;28;20228;-83
2022/12/19 11:28:37;;;;;;;46.37;24.23;;;2.40;99.90;;;;;;10307328;28;20686;-84
2022/12/19 11:34:05;;;;;;;28.43;15.20;;;1.60;98.80;;;;;;10315553;28;20750;-83
2022/12/19 11:39:35;;;;;;;38.97;21.20;;;1.80;99.90;;;;;;10314904;28;20279;-83
2022/12/19 11:45:05;;;;;;;42.97;21.13;;;2.80;99.10;;;;;;10298912;28;20266;-83
2022/12/19 11:50:22;;;;;;;45.23;22.17;;;2.20;98.00;;;;;;10308315;28;20307;-83
2022/12/19 11:55:34;;;;;;;49.13;23.90;;;1.40;99.90;;;;;;10315605;28;20232;-84
2022/12/19 12:00:48;;;;;;;51.10;24.10;;;1.10;99.90;;;;;;10316511;28;20306;-83
2022/12/19 12:05:53;;;;;;;53.83;22.00;;;1.00;99.90;;;;;;10297023;28;20264;-84
2022/12/19 12:11:00;;;;;;;41.73;21.30;;;0.80;99.90;;;;;;10315915;28;20275;-84
2022/12/19 12:16:32;;;;;;;44.87;19.63;;;0.70;99.90;;;;;;10314921;28;20228;-84
2022/12/19 12:22:14;;;;;;;42.30;21.57;;;0.90;99.90;;;;;;10299237;28;20256;-84
2022/12/19 12:27:42;;;;;;;42.33;21.77;;;1.00;99.90;;;;;;10313681;28;20748;-83
2022/12/19 12:33:10;;;;;;;39.33;20.00;;;1.10;99.90;;;;;;10303807;28;20260;-83
2022/12/19 12:38:41;;;;;;;30.63;15.70;;;1.10;99.90;;;;;;10308347;28;20236;-83
2022/12/19 12:43:56;;;;;;;39.73;20.50;;;1.40;99.90;;;;;;10307757;28;20303;-83
2022/12/19 12:49:03;;;;;;;43.77;22.83;;;1.40;99.90;;;;;;10298567;28;20275;-83
2022/12/19 12:54:11;;;;;;;46.50;23.10;;;1.30;99.90;;;;;;10299684;28;20269;-83
2022/12/19 12:59:32;;;;;;;38.77;20.00;;;1.30;99.90;;;;;;10312715;28;20236;-83
2022/12/19 13:04:41;;;;;;;44.00;22.20;;;1.40;99.90;;;;;;10308685;28;20269;-83
2022/12/19 13:09:49;;;;;;;55.23;23.73;;;1.40;99.90;;;;;;10313557;28;20232;-83
2022/12/19 13:14:52;;;;;;;44.87;23.03;;;1.40;99.90;;;;;;10311926;28;20340;-83
2022/12/19 13:20:17;;;;;;;29.20;16.33;;;1.40;99.90;;;;;;10296919;28;20753;-83
2022/12/19 13:25:25;;;;;;;44.30;20.37;;;1.70;99.90;;;;;;10321416;28;20290;-83
2022/12/19 13:30:29;;;;;;;44.30;22.63;;;2.30;99.90;;;;;;10307486;28;20665;-84
2022/12/19 13:35:35;;;;;;;42.13;22.83;;;1.60;99.90;;;;;;10316578;28;20232;-83
2022/12/19 13:47:05;;;;;;;29.17;15.40;;;1.30;99.90;;;;;;10316870;28;20241;-84
2022/12/19 13:57:50;;;;;;;32.67;18.93;;;1.30;99.90;;;;;;10212854;23;10000176;-84
2022/12/19 14:02:53;;;;;;;27.03;14.10;;;1.40;99.90;;;;;;10354182;28;20231;-84
2022/12/19 14:07:57;;;;;;;39.53;19.10;;;2.90;99.90;;;;;;10354361;28;20236;-85
2022/12/19 14:18:49;;;;;;;27.23;15.63;;;2.40;96.90;;;;;;10372163;28;20644;-85
2022/12/19 14:24:11;;;;;;;35.73;17.10;;;2.10;99.20;;;;;;10369524;28;20240;-85
2022/12/19 14:29:22;;;;;;;34.00;16.43;;;2.60;99.90;;;;;;10353290;28;20281;-85
2022/12/19 14:34:47;;;;;;;34.33;17.93;;;3.20;99.90;;;;;;10370242;28;20274;-85
2022/12/19 14:40:25;;;;;;;34.00;17.77;;;3.40;97.10;;;;;;10357686;28;20228;-84
2022/12/19 14:45:37;;;;;;;32.37;15.53;;;3.30;97.30;;;;;;10370991;28;20274;-85
2022/12/19 14:51:27;;;;;;;35.27;15.43;;;3.20;97.20;;;;;;10352915;28;20260;-88
2022/12/19 14:56:55;;;;;;;32.97;18.60;;;3.80;99.90;;;;;;10370666;28;20227;-88
2022/12/19 15:02:05;;;;;;;37.27;18.83;;;3.70;94.60;;;;;;10375635;28;20224;-88
2022/12/19 15:07:25;;;;;;;39.43;20.53;;;3.20;94.30;;;;;;10388295;28;20274;-88
2022/12/19 15:18:41;;;;;;;36.37;20.10;;;2.60;97.00;;;;;;10379839;28;20309;-88
2022/12/19 15:23:44;;;;;;;44.27;18.30;;;2.40;97.80;;;;;;10389989;28;20251;-88
2022/12/19 15:28:52;;;;;;;47.03;21.90;;;2.40;98.80;;;;;;10390292;28;20236;-88
2022/12/19 15:33:55;;;;;;;50.60;24.97;;;2.20;98.60;;;;;;10360829;28;20287;-88
2022/12/19 15:39:18;;;;;;;37.67;21.63;;;2.20;99.00;;;;;;10384791;28;20223;-89
2022/12/19 15:44:39;;;;;;;40.97;21.53;;;2.10;98.90;;;;;;10379350;28;20239;-89
2022/12/19 15:49:42;;;;;;;27.50;11.93;;;1.80;99.60;;;;;;10381497;28;20207;-88
2022/12/19 15:54:45;;;;;;;34.53;19.67;;;2.50;99.90;;;;;;10394636;28;20271;-88
2022/12/19 15:59:52;;;;;;;40.53;21.40;;;3.50;99.90;;;;;;10353644;28;20281;-87
2022/12/19 16:04:54;;;;;;;38.10;20.17;;;3.10;97.60;;;;;;10375353;28;20239;-87
2022/12/19 16:10:06;;;;;;;41.07;21.27;;;2.70;99.60;;;;;;10383898;28;20239;-88
2022/12/19 16:15:16;;;;;;;38.57;21.00;;;2.60;99.90;;;;;;10380344;28;20254;-87
2022/12/19 16:20:25;;;;;;;38.57;23.13;;;2.50;99.90;;;;;;10373278;28;20257;-88
2022/12/19 16:25:51;;;;;;;39.47;21.00;;;2.30;99.90;;;;;;10358340;28;20269;-88
2022/12/19 16:30:58;;;;;;;42.57;23.50;;;2.30;99.90;;;;;;10374350;28;20255;-87
2022/12/19 16:36:00;;;;;;;39.03;23.17;;;2.20;99.90;;;;;;10383762;28;20286;-87
2022/12/19 16:41:22;;;;;;;40.47;21.20;;;2.10;99.90;;;;;;10370075;28;20281;-87
2022/12/19 16:46:29;;;;;;;48.37;30.13;;;2.00;99.90;;;;;;10355361;28;20242;-88
2022/12/19 16:51:32;;;;;;;75.90;44.70;;;1.80;99.90;;;;;;10398735;28;20250;-88
2022/12/19 16:56:40;;;;;;;84.67;46.07;;;1.40;99.90;;;;;;10394682;28;20710;-88
2022/12/19 17:01:47;;;;;;;108.80;67.30;;;1.30;99.90;;;;;;10395013;28;20231;-88
2022/12/19 17:06:51;;;;;;;74.07;46.83;;;1.00;99.90;;;;;;10395928;28;20239;-89
2022/12/19 17:11:59;;;;;;;63.53;36.63;;;1.10;99.90;;;;;;10392390;28;20308;-88
2022/12/19 17:17:02;;;;;;;66.97;40.27;;;1.00;99.90;;;;;;10389533;28;20561;-89
2022/12/19 17:22:11;;;;;;;71.37;41.57;;;1.00;99.90;;;;;;10394204;28;20239;-88
2022/12/19 17:27:16;;;;;;;78.50;43.47;;;0.90;99.90;;;;;;10380816;28;20290;-88
2022/12/19 17:32:18;;;;;;;81.03;43.53;;;0.80;99.90;;;;;;10385502;28;20294;-89
2022/12/19 17:37:25;;;;;;;84.40;41.80;;;0.70;99.90;;;;;;10398202;28;20331;-89
2022/12/19 17:42:28;;;;;;;69.97;40.33;;;0.70;99.90;;;;;;10371962;28;20629;-88
2022/12/19 17:47:38;;;;;;;71.00;41.37;;;0.70;99.90;;;;;;10388268;28;20242;-89
2022/12/19 17:52:41;;;;;;;63.97;31.80;;;0.60;99.90;;;;;;10389710;28;20313;-89
2022/12/19 17:57:43;;;;;;;55.13;28.00;;;0.60;99.90;;;;;;10401347;28;20647;-90
2022/12/19 18:02:48;;;;;;;52.93;27.60;;;0.80;99.90;;;;;;10411480;28;20211;-89
2022/12/19 18:07:52;;;;;;;50.37;26.87;;;1.00;99.90;;;;;;10411682;28;20607;-89
2022/12/19 18:12:55;;;;;;;54.77;27.97;;;1.10;99.90;;;;;;10414790;28;20584;-89
2022/12/19 18:17:58;;;;;;;42.67;21.73;;;1.30;99.90;;;;;;10379291;28;20196;-88
2022/12/19 18:23:01;;;;;;;40.63;22.47;;;1.60;99.90;;;;;;10397914;28;20230;-89
2022/12/19 18:28:03;;;;;;;50.30;26.53;;;1.70;99.90;;;;;;10417635;28;20207;-89
2022/12/19 18:33:06;;;;;;;47.73;25.30;;;1.80;99.90;;;;;;10383012;28;20220;-88
2022/12/19 18:38:18;;;;;;;39.43;22.90;;;2.00;99.90;;;;;;10417912;28;20305;-88
2022/12/19 18:43:20;;;;;;;53.40;27.33;;;2.10;99.90;;;;;;10402687;28;20208;-88
2022/12/19 18:48:31;;;;;;;52.53;29.43;;;2.10;99.90;;;;;;10416585;28;20614;-88
2022/12/19 18:53:34;;;;;;;36.60;22.27;;;2.10;99.90;;;;;;10358078;28;20259;-88
2022/12/19 18:58:38;;;;;;;45.70;23.70;;;2.30;99.90;;;;;;10365905;28;20602;-88
2022/12/19 19:03:47;;;;;;;38.90;22.90;;;2.50;99.90;;;;;;10392458;28;21251;-88
2022/12/19 19:08:50;;;;;;;38.53;23.63;;;2.60;99.90;;;;;;10387507;28;20273;-88
2022/12/19 19:14:05;;;;;;;47.90;26.70;;;2.50;99.90;;;;;;10384131;28;20312;-88
2022/12/19 19:19:10;;;;;;;46.57;26.53;;;2.10;99.90;;;;;;10392372;28;20263;-89
2022/12/19 19:24:17;;;;;;;39.30;22.63;;;2.00;99.90;;;;;;10419163;28;20568;-90
2022/12/19 19:29:19;;;;;;;78.53;42.43;;;1.50;99.90;;;;;;10415976;28;20204;-89
2022/12/19 19:34:34;;;;;;;70.47;36.13;;;1.00;99.90;;;;;;10412981;28;20736;-87
2022/12/19 19:39:36;;;;;;;52.70;28.43;;;1.00;99.90;;;;;;10400098;28;20207;-90
2022/12/19 19:44:39;;;;;;;57.27;30.23;;;1.10;99.90;;;;;;10380021;28;20219;-87
2022/12/19 19:49:42;;;;;;;58.33;30.43;;;1.20;99.90;;;;;;10412438;28;20561;-89
2022/12/19 19:54:44;;;;;;;53.97;30.53;;;1.30;99.90;;;;;;10390017;28;20228;-88
2022/12/19 19:59:47;;;;;;;51.10;27.77;;;1.20;99.90;;;;;;10413749;28;20639;-87
2022/12/19 20:04:50;;;;;;;55.13;30.80;;;1.30;99.90;;;;;;10441702;28;20208;-85
2022/12/19 20:10:00;;;;;;;52.70;27.60;;;1.20;99.90;;;;;;10427125;28;20207;-87
2022/12/19 20:15:03;;;;;;;51.73;30.13;;;1.10;99.90;;;;;;10437295;28;20220;-87
2022/12/19 20:20:07;;;;;;;48.63;26.83;;;1.10;99.90;;;;;;10432079;28;20217;-88
2022/12/19 20:25:09;;;;;;;52.77;28.70;;;1.30;99.90;;;;;;10400316;28;20600;-89
2022/12/19 20:30:12;;;;;;;53.33;28.90;;;1.20;99.90;;;;;;10452739;28;20191;-89
2022/12/19 20:35:15;;;;;;;46.57;26.90;;;1.20;99.90;;;;;;10443147;28;20262;-88
2022/12/19 20:40:17;;;;;;;47.63;25.80;;;1.20;99.90;;;;;;10470605;28;20171;-88
2022/12/19 20:45:21;;;;;;;55.63;30.37;;;1.20;99.90;;;;;;10456900;28;20181;-88
2022/12/19 20:50:23;;;;;;;48.67;26.77;;;1.20;99.90;;;;;;10417137;28;20204;-86
2022/12/19 20:55:26;;;;;;;42.67;23.90;;;1.30;99.90;;;;;;10467453;28;20216;-87
2022/12/19 21:00:28;;;;;;;45.03;23.77;;;1.20;99.90;;;;;;10455248;28;20180;-89
2022/12/19 21:05:30;;;;;;;39.87;22.57;;;1.30;99.90;;;;;;10471377;28;20210;-87
2022/12/19 21:10:34;;;;;;;41.57;25.10;;;1.30;99.90;;;;;;10466946;28;20208;-87
2022/12/19 21:15:38;;;;;;;37.70;22.00;;;1.20;99.90;;;;;;10447002;28;20249;-90
2022/12/19 21:20:43;;;;;;;42.33;23.07;;;1.30;99.90;;;;;;10545693;23;20240;-84
2022/12/19 21:32:15;;;;;;;37.23;22.83;;;1.50;99.90;;;;;;10372298;28;20232;-84
2022/12/19 21:37:23;;;;;;;38.70;22.83;;;1.60;99.90;;;;;;10377806;28;20197;-84
2022/12/19 21:42:25;;;;;;;38.80;22.13;;;1.60;99.90;;;;;;10352541;28;20294;-84
2022/12/19 21:47:27;;;;;;;39.90;22.13;;;1.60;99.90;;;;;;10375694;28;20204;-84
2022/12/19 21:52:30;;;;;;;46.37;25.33;;;1.80;99.90;;;;;;10381104;28;20231;-86
2022/12/19 21:57:37;;;;;;;33.77;20.17;;;1.70;99.90;;;;;;10381842;28;20232;-85
2022/12/19 22:02:41;;;;;;;40.53;22.27;;;1.70;99.90;;;;;;10392660;28;20197;-83
2022/12/19 22:08:03;;;;;;;41.03;23.80;;;1.70;99.90;;;;;;10396733;28;20201;-85
2022/12/19 22:13:06;;;;;;;42.50;21.57;;;1.60;99.90;;;;;;10410928;28;20220;-83
2022/12/19 22:18:10;;;;;;;41.40;23.10;;;1.70;99.90;;;;;;10412479;28;20232;-83
2022/12/19 22:23:12;;;;;;;39.70;22.57;;;1.70;99.90;;;;;;10407205;28;20545;-82
2022/12/19 22:28:15;;;;;;;39.57;22.30;;;1.80;99.90;;;;;;10429150;28;20215;-86
2022/12/19 22:33:17;;;;;;;47.23;30.33;;;1.80;99.90;;;;;;10387959;28;20692;-82
2022/12/19 22:38:20;;;;;;;43.80;24.53;;;1.60;99.90;;;;;;10410860;28;20560;-82
2022/12/19 22:43:23;;;;;;;41.23;24.57;;;1.60;99.90;;;;;;10437562;28;20664;-82
2022/12/19 22:48:26;;;;;;;38.77;20.93;;;1.60;99.90;;;;;;10404103;28;20201;-83
2022/12/19 22:53:28;;;;;;;38.70;22.53;;;1.70;99.90;;;;;;10368608;28;20630;-83
2022/12/19 22:58:38;;;;;;;37.70;20.27;;;1.70;99.90;;;;;;10414158;23;20239;-85
2022/12/19 23:03:42;;;;;;;35.50;19.87;;;1.70;99.90;;;;;;10419330;28;20200;-85
2022/12/19 23:08:46;;;;;;;34.07;16.63;;;2.00;99.90;;;;;;10410874;28;20199;-85
2022/12/19 23:13:48;;;;;;;35.97;20.03;;;2.10;99.90;;;;;;10439393;28;20208;-85
2022/12/19 23:18:51;;;;;;;39.60;20.90;;;2.20;99.90;;;;;;10428623;28;20217;-86
2022/12/19 23:23:55;;;;;;;35.40;20.13;;;2.10;99.90;;;;;;10406707;28;20739;-85
2022/12/19 23:29:03;;;;;;;35.60;22.03;;;2.10;99.90;;;;;;10377222;28;20216;-86
2022/12/19 23:34:05;;;;;;;36.20;21.80;;;2.10;99.90;;;;;;10438257;28;20281;-86
2022/12/19 23:39:09;;;;;;;41.17;22.07;;;2.10;99.90;;;;;;10410457;28;20263;-85
2022/12/19 23:44:12;;;;;;;37.13;20.97;;;2.10;99.90;;;;;;10428716;28;20204;-85
2022/12/19 23:49:14;;;;;;;38.10;20.27;;;2.10;99.90;;;;;;10395862;28;20212;-86
2022/12/19 23:54:17;;;;;;;33.67;17.07;;;2.10;99.90;;;;;;10401107;28;20224;-88
2022/12/19 23:59:19;;;;;;;29.50;16.27;;;2.60;99.90;;;;;;10372798;28;20232;-87
